Time;durP1;ratioP1;P1;durP2;ratioP2;P2;SDS_P1;SDS_P2;PMS_P1;PMS_P2;Temp;Humidity;BMP_temperature;BMP_pressure;BME280_temperature;BME280_humidity;BME280_pressure;Samples;Min_cycle;Max_cycle;Signal;HPM_P1;HPM_P2
2021/09/02 00:01:04;;;;;;;9.30;8.40;;;;;;;14.49;71.94;101151.23;118259;1194;21790;-77
2021/09/02 00:03:33;;;;;;;9.90;8.90;;;;;;;14.47;71.92;101153.75;118419;1188;22274;-77
2021/09/02 00:06:03;;;;;;;12.40;9.50;;;;;;;14.42;72.02;101152.79;118318;1194;21805;-77
2021/09/02 00:08:32;;;;;;;12.80;11.40;;;;;;;14.37;72.14;101152.05;118385;1194;21808;-78
2021/09/02 00:11:01;;;;;;;11.60;10.50;;;;;;;14.36;72.38;101157.95;118505;1193;21795;-77
2021/09/02 00:13:30;;;;;;;14.20;11.70;;;;;;;14.31;72.46;101153.48;118399;1188;21811;-77
2021/09/02 00:15:59;;;;;;;11.70;10.40;;;;;;;14.28;72.57;101151.42;118391;1194;21827;-77
2021/09/02 00:18:29;;;;;;;13.30;11.30;;;;;;;14.26;72.58;101157.52;118408;1192;22088;-77
2021/09/02 00:20:58;;;;;;;11.30;10.10;;;;;;;14.20;72.47;101151.70;118165;1196;21812;-77
2021/09/02 00:23:27;;;;;;;13.10;11.10;;;;;;;14.16;72.48;101154.13;118134;1190;22111;-77
2021/09/02 00:25:56;;;;;;;11.40;10.00;;;;;;;14.14;72.67;101159.21;118167;1195;21813;-77
2021/09/02 00:28:25;;;;;;;13.20;9.60;;;;;;;14.08;72.67;101155.45;118169;1190;21862;-77
2021/09/02 00:30:54;;;;;;;12.70;9.60;;;;;;;14.08;72.77;101152.50;118154;1197;21791;-77
2021/09/02 00:33:23;;;;;;;11.10;9.50;;;;;;;14.05;72.84;101152.48;118187;1193;21862;-78
2021/09/02 00:35:52;;;;;;;30.00;11.30;;;;;;;14.01;72.92;101153.24;118167;1195;21822;-77
2021/09/02 00:38:21;;;;;;;86.40;21.40;;;;;;;13.98;72.84;101150.94;118216;1194;21820;-78
2021/09/02 00:40:51;;;;;;;41.40;13.00;;;;;;;13.95;72.82;101148.80;118422;1191;22082;-77
2021/09/02 00:43:20;;;;;;;12.70;9.10;;;;;;;13.92;72.78;101153.37;118292;1191;22624;-78
2021/09/02 00:45:49;;;;;;;12.00;8.80;;;;;;;13.89;72.78;101154.23;118309;1192;21787;-77
2021/09/02 00:48:18;;;;;;;10.10;8.90;;;;;;;13.86;72.74;101156.49;118515;1191;21804;-77
2021/09/02 00:50:48;;;;;;;12.50;9.00;;;;;;;13.83;72.89;101154.91;118498;1191;22208;-77
2021/09/02 00:53:17;;;;;;;9.70;8.70;;;;;;;13.80;72.94;101156.89;118485;1191;21794;-77
2021/09/02 00:55:48;;;;;;;15.30;8.40;;;;;;;13.75;72.99;101154.60;118459;1190;22217;-77
2021/09/02 00:58:19;;;;;;;13.80;8.90;;;;;;;13.70;72.95;101156.56;118404;1191;22315;-77
2021/09/02 01:00:48;;;;;;;;;;;;;;;13.63;72.96;101157.63;118404;1194;22452;-77
2021/09/02 01:03:20;;;;;;;192.00;30.10;;;;;;;13.50;73.15;101159.61;118516;1190;22231;-77
2021/09/02 01:05:52;;;;;;;116.40;21.50;;;;;;;13.43;73.49;101152.34;118396;1193;22223;-77
2021/09/02 01:08:21;;;;;;;;;;;;;;;13.43;73.68;101156.06;118513;1191;21777;-76
2021/09/02 01:10:50;;;;;;;33.00;10.50;;;;;;;13.35;73.88;101161.45;118510;1186;22253;-76
2021/09/02 01:13:20;;;;;;;21.30;10.80;;;;;;;13.34;74.06;101163.60;118398;1191;22064;-76
2021/09/02 01:15:50;;;;;;;12.00;7.50;;;;;;;13.35;73.95;101165.62;118509;1193;21797;-76
2021/09/02 01:18:19;;;;;;;15.20;8.00;;;;;;;13.32;73.88;101163.64;118145;1197;21803;-76
2021/09/02 01:20:48;;;;;;;20.00;9.00;;;;;;;13.31;73.81;101166.45;118017;1199;21872;-75
2021/09/02 01:23:22;;;;;;;21.50;8.80;;;;;;;13.28;73.78;101168.58;116755;1203;21785;-75
2021/09/02 01:25:51;;;;;;;17.70;9.10;;;;;;;13.26;73.69;101172.30;117173;1201;21883;-76
2021/09/02 01:28:20;;;;;;;12.30;8.10;;;;;;;13.20;73.77;101170.03;116941;1201;21885;-77
2021/09/02 01:30:49;;;;;;;13.30;8.30;;;;;;;13.17;73.87;101172.32;117182;1203;21914;-76
2021/09/02 01:33:18;;;;;;;12.60;8.30;;;;;;;13.14;73.99;101167.80;117251;1201;21715;-77
2021/09/02 01:35:47;;;;;;;13.80;9.00;;;;;;;13.12;74.04;101168.80;117264;1202;22172;-77
2021/09/02 01:38:16;;;;;;;8.50;7.60;;;;;;;13.10;74.16;101169.76;117757;1198;22425;-77
2021/09/02 01:40:48;;;;;;;10.30;7.50;;;;;;;13.11;74.24;101177.90;118122;1195;21853;-78
2021/09/02 01:43:17;;;;;;;9.90;7.70;;;;;;;13.09;74.23;101179.56;118451;1194;21830;-76
2021/09/02 01:45:46;;;;;;;13.00;8.50;;;;;;;13.02;74.16;101173.37;118363;1190;21774;-77
2021/09/02 01:48:15;;;;;;;13.70;7.50;;;;;;;13.00;74.11;101176.94;118411;1191;22205;-76
2021/09/02 01:50:44;;;;;;;9.40;7.40;;;;;;;12.98;74.15;101181.81;118392;1190;21806;-76
2021/09/02 01:53:18;;;;;;;10.00;7.70;;;;;;;12.92;74.15;101176.56;118379;1193;21775;-76
2021/09/02 01:55:48;;;;;;;12.80;8.30;;;;;;;12.89;74.13;101175.46;118344;1194;21759;-77
2021/09/02 01:58:17;;;;;;;9.20;7.70;;;;;;;12.89;74.40;101177.11;118344;1190;21806;-77
2021/09/02 02:00:46;;;;;;;14.00;8.30;;;;;;;12.83;74.56;101175.11;118207;1195;21848;-76
2021/09/02 02:03:16;;;;;;;14.70;8.20;;;;;;;12.81;74.56;101178.32;118317;1192;22283;-77
2021/09/02 02:05:45;;;;;;;10.20;8.30;;;;;;;12.81;74.53;101180.94;118295;1194;22061;-77
2021/09/02 02:08:16;;;;;;;11.40;8.20;;;;;;;12.78;74.65;101178.09;118397;1194;21849;-77
2021/09/02 02:10:45;;;;;;;10.90;8.80;;;;;;;12.78;74.75;101181.59;118333;1192;21796;-77
2021/09/02 02:13:14;;;;;;;12.30;8.80;;;;;;;12.76;74.74;101189.11;118320;1195;21777;-77
2021/09/02 02:15:43;;;;;;;11.50;8.30;;;;;;;12.76;74.70;101194.59;118266;1194;22073;-77
2021/09/02 02:18:13;;;;;;;11.10;8.30;;;;;;;12.71;74.66;101193.77;118374;1190;21803;-77
2021/09/02 02:20:42;;;;;;;13.80;9.40;;;;;;;12.72;74.78;101194.85;118290;1191;21797;-77
2021/09/02 02:23:11;;;;;;;10.60;8.90;;;;;;;12.71;74.94;101197.55;118316;1193;21800;-77
2021/09/02 02:25:39;;;;;;;10.70;8.10;;;;;;;12.70;74.85;101209.17;118300;1192;22210;-78
2021/09/02 02:28:09;;;;;;;13.50;9.30;;;;;;;12.68;74.96;101207.20;118380;1194;21776;-77
2021/09/02 02:30:38;;;;;;;38.60;14.50;;;;;;;12.67;75.02;101211.06;118353;1193;21798;-77
2021/09/02 02:33:07;;;;;;;31.80;13.10;;;;;;;12.66;74.98;101216.48;118329;1191;21850;-77
2021/09/02 02:35:36;;;;;;;29.90;12.10;;;;;;;12.66;74.90;101221.79;118286;1195;21834;-77
2021/09/02 02:38:05;;;;;;;69.80;18.60;;;;;;;12.59;75.01;101214.80;118290;1192;21801;-77
2021/09/02 02:40:33;;;;;;;32.40;11.20;;;;;;;12.60;75.10;101217.08;118274;1194;22209;-77
2021/09/02 02:43:03;;;;;;;12.60;9.10;;;;;;;12.60;75.17;101215.34;118382;1187;21785;-77
2021/09/02 02:45:32;;;;;;;10.00;7.30;;;;;;;12.57;75.20;101207.14;118283;1194;21818;-77
2021/09/02 02:48:01;;;;;;;8.80;7.10;;;;;;;12.60;75.36;101209.47;118382;1194;21813;-76
2021/09/02 02:50:31;;;;;;;7.90;7.10;;;;;;;12.61;75.47;101205.45;118409;1190;21802;-77
2021/09/02 02:53:00;;;;;;;10.50;7.20;;;;;;;12.60;75.50;101204.11;118405;1190;21784;-77
2021/09/02 02:55:29;;;;;;;12.80;7.70;;;;;;;12.60;75.50;101197.45;118323;1193;21738;-77
2021/09/02 02:57:58;;;;;;;13.90;8.80;;;;;;;12.63;75.38;101201.59;118371;1187;21786;-77
2021/09/02 03:00:27;;;;;;;16.40;8.50;;;;;;;12.62;75.39;101201.42;118307;1192;21793;-76
2021/09/02 03:02:56;;;;;;;28.60;10.60;;;;;;;12.58;75.37;101196.77;118288;1191;22237;-77
2021/09/02 03:05:25;;;;;;;27.60;11.10;;;;;;;12.57;75.34;101194.25;118355;1195;21817;-77
2021/09/02 03:07:54;;;;;;;28.20;9.00;;;;;;;12.55;75.31;101198.02;118316;1191;21789;-77
2021/09/02 03:10:23;;;;;;;9.20;7.00;;;;;;;12.57;75.31;101209.29;118334;1191;21800;-77
2021/09/02 03:12:52;;;;;;;19.50;7.60;;;;;;;12.52;75.30;101206.42;118366;1190;21871;-77
2021/09/02 03:15:21;;;;;;;17.30;7.70;;;;;;;12.51;75.39;101214.66;118370;1187;21811;-76
2021/09/02 03:17:50;;;;;;;11.00;7.30;;;;;;;12.52;75.44;101212.81;118294;1194;22273;-77
2021/09/02 03:20:19;;;;;;;11.90;7.80;;;;;;;12.46;75.43;101210.17;118376;1190;21815;-76
2021/09/02 03:22:48;;;;;;;10.20;7.40;;;;;;;12.45;75.60;101210.15;118429;1190;21791;-76
2021/09/02 03:25:18;;;;;;;10.20;7.80;;;;;;;12.44;75.63;101212.92;118305;1192;21814;-76
2021/09/02 03:27:47;;;;;;;13.60;7.40;;;;;;;12.40;75.73;101205.39;118379;1193;22199;-77
2021/09/02 03:30:16;;;;;;;9.40;7.90;;;;;;;12.39;75.72;101206.04;118413;1190;21779;-76
2021/09/02 03:32:45;;;;;;;9.10;7.80;;;;;;;12.39;75.79;101213.27;118388;1193;21788;-76
2021/09/02 03:35:14;;;;;;;8.90;7.10;;;;;;;12.37;75.77;101213.81;118189;1195;21823;-76
2021/09/02 03:37:43;;;;;;;11.50;8.20;;;;;;;12.33;75.72;101212.64;118167;1190;21842;-77
2021/09/02 03:40:12;;;;;;;11.20;8.50;;;;;;;12.30;75.75;101217.15;118007;1197;21816;-77
2021/09/02 03:42:41;;;;;;;20.20;9.00;;;;;;;12.27;75.74;101217.97;118148;1194;22132;-76
2021/09/02 03:45:10;;;;;;;18.00;9.40;;;;;;;12.24;75.70;101223.95;118095;1195;22227;-77
2021/09/02 03:47:47;;;;;;;14.70;8.50;;;;;;;12.21;75.65;101224.08;118116;1195;21811;-77
2021/09/02 03:50:18;;;;;;;12.70;8.10;;;;;;;12.18;75.64;101228.77;118052;1196;21813;-77
2021/09/02 03:52:47;;;;;;;13.40;7.90;;;;;;;12.13;75.72;101221.96;118198;1194;22109;-77
2021/09/02 03:55:16;;;;;;;12.10;7.90;;;;;;;12.11;75.78;101220.38;118304;1187;21808;-76
2021/09/02 03:57:45;;;;;;;12.40;7.60;;;;;;;12.08;75.76;101216.80;118368;1195;21755;-76
2021/09/02 04:00:14;;;;;;;11.70;8.10;;;;;;;12.06;75.82;101217.35;118376;1187;22103;-76
2021/09/02 04:02:43;;;;;;;12.90;8.30;;;;;;;12.04;75.85;101217.58;118409;1190;22057;-77
2021/09/02 04:05:13;;;;;;;22.80;8.90;;;;;;;12.04;75.79;101221.93;118289;1192;21799;-77
2021/09/02 04:07:41;;;;;;;30.90;10.40;;;;;;;12.03;75.84;101221.94;118319;1191;21805;-77
2021/09/02 04:10:11;;;;;;;26.30;9.60;;;;;;;12.00;75.99;101219.73;118285;1195;21792;-77
2021/09/02 04:12:40;;;;;;;17.30;8.70;;;;;;;11.95;75.91;101220.86;118126;1194;21835;-77
2021/09/02 04:15:09;;;;;;;17.90;9.40;;;;;;;11.96;75.86;101227.59;118134;1190;21764;-75
2021/09/02 04:17:38;;;;;;;25.00;9.70;;;;;;;11.93;75.90;101230.80;118130;1196;21830;-75
2021/09/02 04:20:07;;;;;;;19.30;14.10;;;;;;;11.90;75.85;101232.61;118149;1194;21896;-75
2021/09/02 04:22:36;;;;;;;18.70;11.50;;;;;;;11.85;75.90;101227.26;118122;1193;21800;-75
2021/09/02 04:25:06;;;;;;;9.10;8.10;;;;;;;11.81;75.93;101232.15;118160;1194;22225;-75
2021/09/02 04:27:35;;;;;;;15.00;8.80;;;;;;;11.80;76.09;101235.48;118178;1194;21839;-76
2021/09/02 04:30:05;;;;;;;16.00;9.30;;;;;;;11.79;76.22;101235.74;118173;1195;21858;-76
2021/09/02 04:32:34;;;;;;;34.50;12.00;;;;;;;11.79;76.33;101234.14;118397;1190;21807;-76
2021/09/02 04:35:03;;;;;;;28.50;11.30;;;;;;;11.81;76.37;101237.48;118285;1192;21819;-75
2021/09/02 04:37:43;;;;;;;23.40;12.30;;;;;;;11.83;76.49;101232.38;118412;1190;21741;-75
2021/09/02 04:40:14;;;;;;;30.60;15.30;;;;;;;11.83;76.70;101227.77;118317;1194;21781;-76
2021/09/02 04:42:44;;;;;;;26.80;15.90;;;;;;;11.85;76.80;101226.70;118301;1193;21751;-76
2021/09/02 04:45:13;;;;;;;25.80;15.60;;;;;;;11.89;76.93;101227.03;118361;1193;21750;-76
2021/09/02 04:47:42;;;;;;;30.30;18.10;;;;;;;11.90;76.89;101223.04;118301;1192;21804;-77
2021/09/02 04:50:13;;;;;;;33.30;18.50;;;;;;;11.96;76.97;101224.37;118354;1190;21826;-76
2021/09/02 04:52:42;;;;;;;30.10;15.70;;;;;;;11.99;77.11;101225.48;118349;1192;21881;-76
2021/09/02 04:55:13;;;;;;;41.90;16.50;;;;;;;12.04;77.19;101223.19;118317;1193;22259;-76
2021/09/02 04:57:42;;;;;;;22.60;13.10;;;;;;;12.12;77.23;101234.02;118294;1195;21779;-78
2021/09/02 05:00:12;;;;;;;26.70;11.70;;;;;;;12.18;77.30;101236.25;118280;1194;21782;-76
2021/09/02 05:02:40;;;;;;;14.60;9.20;;;;;;;12.25;77.26;101241.86;118398;1187;22297;-77
2021/09/02 05:05:10;;;;;;;14.20;10.60;;;;;;;12.29;77.40;101242.15;118310;1194;21795;-76
2021/09/02 05:07:39;;;;;;;15.90;11.10;;;;;;;12.36;77.36;101245.00;118428;1193;21806;-77
2021/09/02 05:10:09;;;;;;;16.50;9.90;;;;;;;12.40;77.31;101244.54;118406;1190;21802;-77
2021/09/02 05:12:38;;;;;;;13.10;9.50;;;;;;;12.45;77.20;101240.03;118332;1190;21795;-77
2021/09/02 05:15:07;;;;;;;12.70;9.40;;;;;;;12.50;77.19;101239.91;118306;1194;21796;-77
2021/09/02 05:17:36;;;;;;;11.40;9.20;;;;;;;12.54;77.32;101241.19;118147;1190;21836;-77
2021/09/02 05:20:06;;;;;;;11.80;9.40;;;;;;;12.60;77.37;101244.10;118178;1194;22125;-76
2021/09/02 05:22:35;;;;;;;10.10;9.10;;;;;;;12.66;77.36;101241.50;117951;1193;21819;-77
2021/09/02 05:25:04;;;;;;;14.20;9.10;;;;;;;12.72;77.38;101241.80;117841;1199;21863;-76
2021/09/02 05:27:34;;;;;;;17.30;9.80;;;;;;;12.81;77.56;101248.45;117960;1192;21780;-76
2021/09/02 05:30:10;;;;;;;13.40;10.00;;;;;;;12.86;77.51;101243.90;117865;1197;21844;-76
2021/09/02 05:32:39;;;;;;;13.70;9.10;;;;;;;12.95;77.32;101246.88;117531;1195;21901;-76
2021/09/02 05:35:09;;;;;;;14.90;9.80;;;;;;;12.99;77.42;101252.92;117890;1197;21849;-75
2021/09/02 05:37:38;;;;;;;14.00;9.60;;;;;;;13.07;77.34;101258.11;118052;1196;22617;-77
2021/09/02 05:40:09;;;;;;;14.70;10.30;;;;;;;13.16;77.49;101261.08;118055;1195;21836;-77
2021/09/02 05:42:38;;;;;;;11.40;8.90;;;;;;;13.25;77.60;101266.14;118425;1190;21824;-76
2021/09/02 05:45:08;;;;;;;16.20;10.60;;;;;;;13.41;77.61;101267.23;118325;1191;21833;-76
2021/09/02 05:47:37;;;;;;;14.70;9.40;;;;;;;13.54;77.48;101262.56;118323;1192;21873;-76
2021/09/02 05:50:07;;;;;;;14.00;9.70;;;;;;;13.67;77.22;101260.79;118342;1192;22085;-77
2021/09/02 05:52:36;;;;;;;12.50;10.00;;;;;;;13.82;77.08;101263.70;118300;1192;21781;-75
2021/09/02 05:55:06;;;;;;;13.80;10.30;;;;;;;13.97;77.21;101259.98;118268;1193;21682;-77
2021/09/02 05:57:40;;;;;;;10.60;9.60;;;;;;;14.19;77.10;101269.77;118368;1193;21850;-76
2021/09/02 06:00:10;;;;;;;9.00;8.10;;;;;;;14.41;77.30;101266.80;118238;1193;21777;-78
2021/09/02 06:02:39;;;;;;;14.90;8.40;;;;;;;14.73;77.46;101270.51;118276;1188;22114;-78
2021/09/02 06:05:09;;;;;;;9.80;8.60;;;;;;;15.07;77.05;101269.19;118282;1188;21677;-77
2021/09/02 06:07:39;;;;;;;12.90;8.80;;;;;;;15.46;77.03;101263.66;117991;1197;22236;-76
2021/09/02 06:10:09;;;;;;;9.70;7.60;;;;;;;15.87;76.36;101261.19;118180;1194;22084;-78
2021/09/02 06:12:39;;;;;;;11.70;8.70;;;;;;;16.27;75.01;101265.79;118181;1196;21738;-77
2021/09/02 06:15:10;;;;;;;13.80;11.80;;;;;;;16.66;74.21;101273.08;118034;1191;21853;-76
2021/09/02 06:17:39;;;;;;;12.30;8.30;;;;;;;17.07;73.63;101269.70;118015;1196;21852;-77
2021/09/02 06:20:10;;;;;;;11.00;9.10;;;;;;;17.47;71.71;101275.45;117781;1197;21848;-78
2021/09/02 06:22:39;;;;;;;9.50;8.40;;;;;;;17.85;70.55;101281.91;117664;1199;21734;-80
2021/09/02 06:25:09;;;;;;;13.30;8.70;;;;;;;18.20;69.88;101270.71;116757;1201;22120;-78
2021/09/02 06:27:39;;;;;;;9.40;8.00;;;;;;;18.64;68.54;101276.34;117441;1198;21816;-77
2021/09/02 06:30:08;;;;;;;12.30;7.70;;;;;;;19.03;67.21;101279.91;117759;1198;21861;-77
2021/09/02 06:32:39;;;;;;;8.60;7.40;;;;;;;19.24;65.16;101268.41;117244;1200;21830;-78
2021/09/02 06:35:08;;;;;;;12.10;8.90;;;;;;;19.51;65.30;101269.78;116721;1204;21820;-77
2021/09/02 06:37:37;;;;;;;9.70;7.00;;;;;;;19.89;64.42;101271.57;116754;1202;21795;-77
2021/09/02 06:40:07;;;;;;;9.40;7.60;;;;;;;20.13;62.54;101277.36;117283;1195;21842;-78
2021/09/02 06:42:36;;;;;;;8.30;7.40;;;;;;;20.31;61.85;101272.66;116967;1198;21884;-78
2021/09/02 06:45:07;;;;;;;7.90;6.40;;;;;;;20.53;61.64;101274.81;117311;1199;21757;-77
2021/09/02 06:47:39;;;;;;;7.80;7.10;;;;;;;20.81;61.04;101272.98;117273;1200;21803;-78
2021/09/02 06:50:11;;;;;;;7.50;6.70;;;;;;;21.16;60.74;101279.36;117357;1200;21848;-78
2021/09/02 06:52:43;;;;;;;8.00;6.10;;;;;;;21.44;59.13;101276.02;117963;1192;21850;-77
2021/09/02 06:55:12;;;;;;;7.50;6.10;;;;;;;21.67;58.82;101264.58;118050;1195;21855;-79
2021/09/02 06:57:44;;;;;;;8.90;6.50;;;;;;;22.05;58.13;101260.52;117603;1195;21866;-77
2021/09/02 07:00:15;;;;;;;11.90;6.60;;;;;;;22.24;55.52;101269.38;117898;1197;21803;-77
2021/09/02 07:02:44;;;;;;;7.00;5.90;;;;;;;22.13;54.47;101266.88;118176;1196;21893;-76
2021/09/02 07:05:13;;;;;;;7.80;5.30;;;;;;;21.92;53.74;101270.55;118126;1193;21859;-78
2021/09/02 07:07:42;;;;;;;7.40;6.00;;;;;;;21.66;53.93;101274.48;118156;1196;21836;-78
2021/09/02 07:10:31;;;;;;;8.10;5.50;;;;;;;21.31;54.36;101271.52;118165;1193;22079;-77
2021/09/02 07:13:00;;;;;;;9.80;5.30;;;;;;;21.07;55.24;101279.45;118203;1193;21821;-77
2021/09/02 07:15:29;;;;;;;4.80;4.30;;;;;;;20.91;55.88;101277.75;118254;1193;21820;-77
2021/09/02 07:17:58;;;;;;;7.90;6.20;;;;;;;20.80;55.69;101280.60;118342;1191;22153;-78
2021/09/02 07:20:27;;;;;;;6.00;4.80;;;;;;;20.63;55.70;101279.02;118311;1193;21787;-77
2021/09/02 07:22:57;;;;;;;5.90;5.00;;;;;;;20.54;56.11;101288.48;118390;1191;21804;-77
2021/09/02 07:25:26;;;;;;;6.30;4.90;;;;;;;20.47;56.19;101282.91;118333;1192;21799;-77
2021/09/02 07:27:55;;;;;;;8.10;5.30;;;;;;;20.46;56.20;101286.89;118219;1193;21843;-77
2021/09/02 07:30:24;;;;;;;5.60;5.10;;;;;;;20.42;55.98;101289.36;118335;1192;21775;-77
2021/09/02 07:32:53;;;;;;;7.60;4.80;;;;;;;20.36;55.87;101292.10;118337;1190;21803;-77
2021/09/02 07:35:22;;;;;;;12.30;5.40;;;;;;;20.31;55.80;101291.45;118414;1193;21789;-77
2021/09/02 07:37:51;;;;;;;5.90;5.10;;;;;;;20.28;55.95;101288.48;118169;1198;21817;-77
2021/09/02 07:40:20;;;;;;;5.70;5.00;;;;;;;20.28;55.83;101293.77;118139;1190;21757;-77
2021/09/02 07:42:49;;;;;;;8.70;6.40;;;;;;;20.42;56.58;101297.59;118181;1198;21947;-77
2021/09/02 07:45:18;;;;;;;6.30;5.60;;;;;;;20.67;56.32;101300.65;118152;1196;21878;-78
2021/09/02 07:47:47;;;;;;;8.30;5.40;;;;;;;20.77;55.46;101295.33;118105;1195;21823;-78
2021/09/02 07:50:16;;;;;;;9.50;6.70;;;;;;;21.01;55.67;101298.45;118056;1194;21750;-78
2021/09/02 07:52:45;;;;;;;6.60;5.30;;;;;;;21.26;54.95;101302.13;117823;1197;22310;-78
2021/09/02 07:55:15;;;;;;;7.00;4.80;;;;;;;21.61;54.26;101310.51;117983;1194;21854;-78
2021/09/02 07:57:48;;;;;;;4.80;4.10;;;;;;;22.00;53.58;101315.13;118416;1190;22020;-78
2021/09/02 08:00:18;;;;;;;5.60;4.80;;;;;;;22.33;52.35;101306.08;118392;1193;22198;-77
2021/09/02 08:02:47;;;;;;;5.10;4.00;;;;;;;22.61;50.89;101307.07;118324;1187;21816;-78
2021/09/02 08:05:16;;;;;;;7.90;4.20;;;;;;;22.94;50.26;101315.76;118439;1194;21797;-78
2021/09/02 08:07:49;;;;;;;6.20;4.60;;;;;;;23.34;49.55;101316.36;118382;1187;21844;-77
2021/09/02 08:10:22;;;;;;;6.90;5.00;;;;;;;23.58;47.64;101315.86;118356;1193;21774;-77
2021/09/02 08:12:53;;;;;;;6.20;5.40;;;;;;;23.77;47.54;101312.66;118348;1192;22151;-77
2021/09/02 08:15:23;;;;;;;5.70;4.50;;;;;;;24.04;47.33;101316.48;118156;1194;21829;-77
2021/09/02 08:17:53;;;;;;;5.10;4.60;;;;;;;24.38;46.80;101323.77;117875;1197;21854;-77
2021/09/02 08:20:22;;;;;;;9.60;4.70;;;;;;;24.69;46.24;101317.55;117736;1193;21840;-77
2021/09/02 08:22:52;;;;;;;10.30;4.10;;;;;;;24.82;45.21;101314.86;117933;1199;22208;-78
2021/09/02 08:25:21;;;;;;;5.10;4.60;;;;;;;24.91;44.98;101310.98;117930;1196;21873;-77
2021/09/02 08:27:50;;;;;;;6.30;4.20;;;;;;;25.05;44.54;101309.48;117955;1198;21810;-77
2021/09/02 08:30:23;;;;;;;10.30;4.40;;;;;;;25.19;44.29;101312.37;117987;1197;21785;-77
2021/09/02 08:32:53;;;;;;;5.90;4.40;;;;;;;25.43;44.18;101313.29;117929;1197;21863;-78
2021/09/02 08:35:28;;;;;;;5.40;4.70;;;;;;;25.61;43.03;101315.00;118132;1195;22163;-76
2021/09/02 08:38:12;;;;;;;13.90;6.20;;;;;;;25.61;42.15;101310.25;118328;1193;21747;-79
2021/09/02 08:40:41;;;;;;;326.00;30.30;;;;;;;25.42;41.99;101299.86;118240;1190;21894;-78
2021/09/02 08:43:11;;;;;;;8.80;6.00;;;;;;;25.25;42.74;101299.45;118350;1193;22491;-79
2021/09/02 08:46:00;;;;;;;5.70;4.30;;;;;;;25.30;43.34;101306.68;118343;1193;22060;-80
2021/09/02 08:48:30;;;;;;;7.60;5.40;;;;;;;25.47;43.55;101314.27;118378;1190;21769;-79
2021/09/02 08:50:59;;;;;;;8.90;4.60;;;;;;;25.59;42.67;101317.84;118316;1192;21797;-80
2021/09/02 08:53:28;;;;;;;9.00;5.00;;;;;;;25.40;42.13;101317.88;118339;1193;21773;-79
2021/09/02 08:55:57;;;;;;;9.90;5.30;;;;;;;25.12;42.14;101308.15;118358;1194;21824;-79
2021/09/02 08:58:26;;;;;;;12.30;4.80;;;;;;;24.76;42.50;101310.02;118313;1192;22067;-78
2021/09/02 09:00:56;;;;;;;8.20;4.90;;;;;;;24.49;43.29;101305.45;118215;1194;21825;-80
2021/09/02 09:03:26;;;;;;;11.30;4.90;;;;;;;24.42;43.98;101303.20;118331;1187;21801;-79
2021/09/02 09:05:59;;;;;;;8.50;4.70;;;;;;;24.38;44.07;101299.95;118356;1193;21744;-78
2021/09/02 09:08:40;;;;;;;4.80;4.20;;;;;;;24.40;44.13;101302.70;118223;1194;21855;-79
2021/09/02 09:11:22;;;;;;;7.90;5.10;;;;;;;24.52;44.25;101308.71;118392;1193;21768;-79
2021/09/02 09:14:10;;;;;;;7.20;5.10;;;;;;;24.63;43.79;101303.06;118340;1194;21819;-79
2021/09/02 09:17:08;;;;;;;9.50;4.20;;;;;;;24.72;43.16;101306.96;118384;1190;21799;-79
2021/09/02 09:19:54;;;;;;;5.60;4.70;;;;;;;24.77;42.70;101302.20;118143;1194;22223;-79
2021/09/02 09:22:27;;;;;;;7.80;4.50;;;;;;;24.77;42.69;101292.42;118178;1198;21779;-79
2021/09/02 09:25:00;;;;;;;8.40;4.50;;;;;;;24.88;42.65;101293.19;117426;1194;21837;-77
2021/09/02 09:27:38;;;;;;;8.10;5.10;;;;;;;25.12;42.42;101297.50;117643;1197;21822;-79
2021/09/02 09:30:11;;;;;;;5.20;4.20;;;;;;;25.25;41.79;101296.46;117466;1198;22240;-81
2021/09/02 09:32:48;;;;;;;8.80;4.70;;;;;;;25.35;41.67;101297.62;117389;1201;21810;-81
2021/09/02 09:35:24;;;;;;;7.50;4.70;;;;;;;25.43;41.16;101301.22;117923;1201;21782;-79
2021/09/02 09:38:23;;;;;;;7.00;5.10;;;;;;;25.51;40.84;101299.37;117438;1199;21772;-77
2021/09/02 09:40:52;;;;;;;7.70;4.60;;;;;;;25.73;40.94;101298.73;117306;1201;21888;-77
2021/09/02 09:43:25;;;;;;;5.30;4.70;;;;;;;25.92;40.45;101295.94;117473;1195;22416;-77
2021/09/02 09:45:56;;;;;;;7.40;4.50;;;;;;;26.08;40.12;101296.46;117431;1199;22205;-79
2021/09/02 09:48:38;;;;;;;6.50;4.70;;;;;;;26.23;40.01;101293.97;117431;1198;21776;-78
2021/09/02 09:51:18;;;;;;;8.00;5.10;;;;;;;26.45;39.57;101297.64;117436;1199;21887;-79
2021/09/02 09:53:53;;;;;;;5.80;4.70;;;;;;;26.51;39.00;101298.56;117914;1198;22196;-78
2021/09/02 09:56:25;;;;;;;9.60;5.70;;;;;;;26.62;38.92;101289.76;117801;1198;21839;-78
2021/09/02 09:58:55;;;;;;;15.00;4.30;;;;;;;26.81;38.66;101293.02;118027;1196;22159;-78
2021/09/02 10:01:27;;;;;;;4.70;4.20;;;;;;;26.96;38.21;101290.81;118069;1196;21882;-78
2021/09/02 10:03:57;;;;;;;11.70;5.20;;;;;;;27.04;37.78;101291.76;118181;1196;21848;-78
2021/09/02 10:06:26;;;;;;;7.20;4.90;;;;;;;27.10;37.40;101292.28;118158;1194;21824;-78
2021/09/02 10:08:55;;;;;;;7.10;6.40;;;;;;;27.14;36.67;101296.19;117907;1196;21786;-78
2021/09/02 10:11:25;;;;;;;7.50;5.40;;;;;;;27.16;36.48;101296.25;117920;1200;21801;-78
2021/09/02 10:13:54;;;;;;;7.30;4.50;;;;;;;27.20;36.13;101290.17;117957;1200;21858;-77
2021/09/02 10:16:23;;;;;;;7.30;4.70;;;;;;;27.26;36.02;101289.63;118007;1196;21840;-78
2021/09/02 10:18:52;;;;;;;7.80;4.80;;;;;;;27.34;35.82;101281.58;118170;1197;22339;-78
2021/09/02 10:21:21;;;;;;;5.20;4.70;;;;;;;27.47;35.51;101288.80;118255;1192;21799;-79
2021/09/02 10:23:50;;;;;;;6.50;5.00;;;;;;;27.57;35.32;101282.00;118293;1193;21814;-80
2021/09/02 10:26:31;;;;;;;8.10;5.00;;;;;;;27.72;34.91;101283.10;118179;1193;22220;-78
2021/09/02 10:29:21;;;;;;;12.30;5.20;;;;;;;27.77;34.71;101274.67;118341;1192;21830;-80
2021/09/02 10:31:50;;;;;;;7.80;5.70;;;;;;;27.82;34.47;101279.89;118324;1195;21845;-79
2021/09/02 10:34:28;;;;;;;8.10;4.70;;;;;;;27.84;34.13;101276.48;118285;1191;21782;-79
2021/09/02 10:36:57;;;;;;;6.70;4.80;;;;;;;27.88;33.98;101270.75;118304;1192;22267;-77
2021/09/02 10:39:43;;;;;;;6.50;4.70;;;;;;;28.04;33.76;101279.34;118305;1188;21830;-78
2021/09/02 10:42:43;;;;;;;9.80;4.70;;;;;;;28.17;33.42;101279.30;118349;1187;22057;-79
2021/09/02 10:45:47;;;;;;;4.80;4.40;;;;;;;28.02;32.89;101270.91;118313;1192;21815;-78
2021/09/02 10:48:17;;;;;;;6.50;4.90;;;;;;;27.76;33.18;101270.38;118083;1195;21861;-79
2021/09/02 10:50:47;;;;;;;7.80;4.90;;;;;;;27.50;33.31;101276.94;118209;1198;21785;-79
2021/09/02 10:53:18;;;;;;;6.00;5.40;;;;;;;27.32;33.80;101270.48;118180;1195;22031;-79
2021/09/02 10:55:47;;;;;;;7.70;5.00;;;;;;;27.02;33.54;101268.70;118047;1196;21778;-79
2021/09/02 10:58:37;;;;;;;7.20;4.70;;;;;;;26.63;34.06;101270.59;118167;1194;22456;-79
2021/09/02 11:01:28;;;;;;;;;;;;;;;26.18;34.41;101276.52;118163;1196;21788;-79
2021/09/02 11:04:03;;;;;;;8.50;5.40;;;;;;;25.72;35.41;101276.50;118169;1196;21877;-79
2021/09/02 11:06:50;;;;;;;6.20;4.80;;;;;;;25.51;36.11;101270.62;118051;1192;21818;-78
2021/09/02 11:09:31;;;;;;;5.60;5.00;;;;;;;25.42;36.00;101267.23;118049;1199;21908;-78
2021/09/02 11:12:02;;;;;;;7.20;5.20;;;;;;;25.21;35.95;101274.22;117984;1198;21927;-77
2021/09/02 11:14:39;;;;;;;21.00;5.50;;;;;;;25.03;36.72;101268.89;118018;1198;22272;-78
2021/09/02 11:17:08;;;;;;;8.30;4.60;;;;;;;24.92;37.08;101262.77;118083;1199;21817;-77
2021/09/02 11:19:43;;;;;;;6.40;5.00;;;;;;;24.72;37.12;101266.34;118021;1193;21834;-79
2021/09/02 11:22:16;;;;;;;5.90;5.20;;;;;;;24.48;37.30;101271.83;117986;1195;21863;-79
2021/09/02 11:24:51;;;;;;;4.90;4.40;;;;;;;24.37;37.73;101269.80;118176;1192;21814;-79
2021/09/02 11:27:34;;;;;;;7.90;5.50;;;;;;;24.36;37.87;101265.45;118212;1190;21816;-78
2021/09/02 11:30:19;;;;;;;7.40;4.60;;;;;;;24.30;37.51;101262.08;118380;1191;22077;-78